PWSweather.com
Personal Weather Stations
Station Observations

DeskleSI

Lat: 46.0525, Lon: 13.6103

Elevation: 300

Station Type: Oregon Scientific WMR200

http://vreme-deskle.slohosting.com/

High Low Average
Temperature 84.6°F29.2°F 59.2°F15.1°F 72.4°F22.4°F
Dew Point 65.3°F18.5°F 55.1°F12.8°F 59.5°F15.3°F
Winds 7.2 mph -11.6 mph - Calm Calm 2.3 mph 3.7 mph
Wind Gusts 10.7 mph17.2 mph -- 4.6 mph7.4 mph
Humidity 92% 39% 67%
Pressure 30.18 in1022.00 in 30.09 in1019.00 in -
Precipitation 1.56 in39.60 in - -
Hour Temp Dew Point Humidity Winds Wind Gusts Pressure Precip Precip Rate Daily Precip Total
03:35 AM 59.7°F15.4°C 56.2°F13.4°C 88% 1.1 mph ESE1.8 kmh ESE 1.3 mph2.1 kmh 30.12 in1020.0 mb 0.00 in0.0 mm 0.00 in0.0 mm 0.00 in0.0 mm
03:40 AM 59.7°F15.4°C 56.2°F13.4°C 88% Calm Calm 1.3 mph2.1 kmh 30.09 in1019.0 mb 0.00 in0.0 mm 0.00 in0.0 mm 0.00 in0.0 mm
03:45 AM 59.7°F15.4°C 56.2°F13.4°C 88% Calm Calm -- 30.09 in1019.0 mb 0.00 in0.0 mm 0.00 in0.0 mm 0.00 in0.0 mm
03:50 AM 59.7°F15.4°C 56.2°F13.4°C 88% Calm Calm -- 30.09 in1019.0 mb 0.00 in0.0 mm 0.00 in0.0 mm 0.00 in0.0 mm
03:55 AM 60.1°F15.6°C 56.8°F13.8°C 89% Calm Calm 0.9 mph1.4 kmh 30.09 in1019.0 mb 0.00 in0.0 mm 0.00 in0.0 mm 0.00 in0.0 mm
04:00 AM 59.9°F15.5°C 56.6°F13.7°C 89% Calm Calm 0.9 mph1.4 kmh 30.09 in1019.0 mb 0.00 in0.0 mm 0.00 in0.0 mm 0.00 in0.0 mm
04:05 AM 59.9°F15.5°C 56.6°F13.7°C 89% Calm Calm -- 30.09 in1019.0 mb 0.00 in0.0 mm 0.00 in0.0 mm 0.00 in0.0 mm
04:10 AM 59.7°F15.4°C 56.5°F13.6°C 89% Calm Calm -- 30.12 in1020.0 mb 0.00 in0.0 mm 0.00 in0.0 mm 0.00 in0.0 mm
04:15 AM 59.7°F15.4°C 56.5°F13.6°C 89% Calm Calm -- 30.12 in1020.0 mb 0.00 in0.0 mm 0.00 in0.0 mm 0.00 in0.0 mm
04:20 AM 59.5°F15.3°C 56.3°F13.5°C 89% Calm Calm -- 30.12 in1020.0 mb 0.00 in0.0 mm 0.00 in0.0 mm 0.00 in0.0 mm
04:25 AM 59.5°F15.3°C 56.3°F13.5°C 89% Calm Calm -- 30.12 in1020.0 mb 0.00 in0.0 mm 0.00 in0.0 mm 0.00 in0.0 mm
04:30 AM 59.7°F15.4°C 56.5°F13.6°C 89% Calm Calm -- 30.12 in1020.0 mb 0.00 in0.0 mm 0.00 in0.0 mm 0.00 in0.0 mm
04:35 AM 59.5°F15.3°C 56.3°F13.5°C 89% Calm Calm -- 30.12 in1020.0 mb 0.00 in0.0 mm 0.00 in0.0 mm 0.00 in0.0 mm
04:40 AM 59.5°F15.3°C 56.3°F13.5°C 89% Calm Calm -- 30.12 in1020.0 mb 0.00 in0.0 mm 0.00 in0.0 mm 0.00 in0.0 mm
04:45 AM 59.4°F15.2°C 56.1°F13.4°C 89% Calm Calm -- 30.12 in1020.0 mb 0.00 in0.0 mm 0.00 in0.0 mm 0.00 in0.0 mm
04:50 AM 59.4°F15.2°C 56.1°F13.4°C 89% Calm Calm -- 30.12 in1020.0 mb 0.00 in0.0 mm 0.00 in0.0 mm 0.00 in0.0 mm
04:55 AM 59.5°F15.3°C 56.3°F13.5°C 89% Calm Calm -- 30.12 in1020.0 mb 0.00 in0.0 mm 0.00 in0.0 mm 0.00 in0.0 mm
05:00 AM 59.7°F15.4°C 56.5°F13.6°C 89% Calm Calm 0.9 mph1.4 kmh 30.12 in1020.0 mb 0.00 in0.0 mm 0.00 in0.0 mm 0.00 in0.0 mm
05:05 AM 59.7°F15.4°C 56.8°F13.8°C 90% Calm Calm 0.9 mph1.4 kmh 30.12 in1020.0 mb 0.00 in0.0 mm 0.00 in0.0 mm 0.00 in0.0 mm
05:10 AM 59.7°F15.4°C 56.8°F13.8°C 90% Calm Calm -- 30.09 in1019.0 mb 0.00 in0.0 mm 0.00 in0.0 mm 0.00 in0.0 mm
05:15 AM 59.7°F15.4°C 56.5°F13.6°C 89% Calm Calm -- 30.09 in1019.0 mb 0.00 in0.0 mm 0.00 in0.0 mm 0.00 in0.0 mm
05:20 AM 59.4°F15.2°C 56.1°F13.4°C 89% Calm Calm -- 30.09 in1019.0 mb 0.00 in0.0 mm 0.00 in0.0 mm 0.00 in0.0 mm
05:25 AM 59.4°F15.2°C 56.1°F13.4°C 89% Calm Calm -- 30.12 in1020.0 mb 0.00 in0.0 mm 0.00 in0.0 mm 0.00 in0.0 mm
05:30 AM 59.4°F15.2°C 56.1°F13.4°C 89% Calm Calm -- 30.12 in1020.0 mb 0.00 in0.0 mm 0.00 in0.0 mm 0.00 in0.0 mm
05:35 AM 59.4°F15.2°C 56.1°F13.4°C 89% Calm Calm -- 30.12 in1020.0 mb 0.00 in0.0 mm 0.00 in0.0 mm 0.00 in0.0 mm
05:40 AM 59.4°F15.2°C 56.1°F13.4°C 89% Calm Calm -- 30.12 in1020.0 mb 0.00 in0.0 mm 0.00 in0.0 mm 0.00 in0.0 mm
05:45 AM 59.4°F15.2°C 56.1°F13.4°C 89% Calm Calm -- 30.12 in1020.0 mb 0.00 in0.0 mm 0.00 in0.0 mm 0.00 in0.0 mm
05:50 AM 59.2°F15.1°C 55.9°F13.3°C 89% Calm Calm -- 30.12 in1020.0 mb 0.00 in0.0 mm 0.00 in0.0 mm 0.00 in0.0 mm
05:55 AM 59.4°F15.2°C 56.4°F13.6°C 90% Calm Calm 1.3 mph2.1 kmh 30.12 in1020.0 mb 0.00 in0.0 mm 0.00 in0.0 mm 0.00 in0.0 mm
06:00 AM 59.5°F15.3°C 56.6°F13.7°C 90% Calm Calm 1.3 mph2.1 kmh 30.12 in1020.0 mb 0.00 in0.0 mm 0.00 in0.0 mm 0.00 in0.0 mm
06:05 AM 59.5°F15.3°C 56.6°F13.7°C 90% Calm Calm -- 30.12 in1020.0 mb 0.00 in0.0 mm 0.00 in0.0 mm 0.00 in0.0 mm
06:10 AM 59.5°F15.3°C 56.6°F13.7°C 90% Calm Calm -- 30.12 in1020.0 mb 0.00 in0.0 mm 0.00 in0.0 mm 0.00 in0.0 mm
06:15 AM 59.4°F15.2°C 56.4°F13.6°C 90% Calm Calm -- 30.12 in1020.0 mb 0.00 in0.0 mm 0.00 in0.0 mm 0.00 in0.0 mm
06:20 AM 59.5°F15.3°C 56.6°F13.7°C 90% Calm Calm 1.3 mph2.1 kmh 30.12 in1020.0 mb 0.00 in0.0 mm 0.00 in0.0 mm 0.00 in0.0 mm
06:25 AM 59.5°F15.3°C 56.6°F13.7°C 90% Calm Calm 1.3 mph2.1 kmh 30.12 in1020.0 mb 0.00 in0.0 mm 0.00 in0.0 mm 0.00 in0.0 mm
06:30 AM 59.7°F15.4°C 56.8°F13.8°C 90% Calm Calm -- 30.12 in1020.0 mb 0.00 in0.0 mm 0.00 in0.0 mm 0.00 in0.0 mm
06:35 AM 59.5°F15.3°C 56.6°F13.7°C 90% Calm Calm -- 30.12 in1020.0 mb 0.00 in0.0 mm 0.00 in0.0 mm 0.00 in0.0 mm
06:40 AM 59.7°F15.4°C 56.8°F13.8°C 90% Calm Calm -- 30.15 in1021.0 mb 0.00 in0.0 mm 0.00 in0.0 mm 0.00 in0.0 mm
06:45 AM 59.7°F15.4°C 57.1°F13.9°C 91% Calm Calm -- 30.15 in1021.0 mb 0.00 in0.0 mm 0.00 in0.0 mm 0.00 in0.0 mm
06:50 AM 59.9°F15.5°C 57.3°F14.1°C 91% Calm Calm -- 30.15 in1021.0 mb 0.00 in0.0 mm 0.00 in0.0 mm 0.00 in0.0 mm
06:55 AM 60.1°F15.6°C 57.4°F14.1°C 91% Calm Calm -- 30.15 in1021.0 mb 0.00 in0.0 mm 0.00 in0.0 mm 0.00 in0.0 mm
07:00 AM 60.3°F15.7°C 57.6°F14.2°C 91% Calm Calm -- 30.15 in1021.0 mb 0.00 in0.0 mm 0.00 in0.0 mm 0.00 in0.0 mm
07:05 AM 60.6°F15.9°C 58.0°F14.4°C 91% Calm Calm -- 30.15 in1021.0 mb 0.00 in0.0 mm 0.00 in0.0 mm 0.00 in0.0 mm
07:10 AM 60.8°F16.0°C 58.2°F14.6°C 91% Calm Calm -- 30.15 in1021.0 mb 0.00 in0.0 mm 0.00 in0.0 mm 0.00 in0.0 mm
07:15 AM 61.0°F16.1°C 58.3°F14.6°C 91% Calm Calm 1.6 mph2.6 kmh 30.15 in1021.0 mb 0.00 in0.0 mm 0.00 in0.0 mm 0.00 in0.0 mm
07:20 AM 61.3°F16.3°C 58.7°F14.8°C 91% 2.7 mph SE4.3 kmh SE 4.3 mph6.9 kmh 30.15 in1021.0 mb 0.00 in0.0 mm 0.00 in0.0 mm 0.00 in0.0 mm
07:25 AM 61.7°F16.5°C 59.0°F15.0°C 91% Calm Calm 4.3 mph6.9 kmh 30.15 in1021.0 mb 0.00 in0.0 mm 0.00 in0.0 mm 0.00 in0.0 mm
07:30 AM 62.2°F16.8°C 59.9°F15.5°C 92% 2.9 mph SE4.7 kmh SE 3.6 mph5.8 kmh 30.15 in1021.0 mb 0.00 in0.0 mm 0.00 in0.0 mm 0.00 in0.0 mm
07:35 AM 62.6°F17.0°C 60.2°F15.7°C 92% 1.3 mph SE2.1 kmh SE 3.6 mph5.8 kmh 30.15 in1021.0 mb 0.00 in0.0 mm 0.00 in0.0 mm 0.00 in0.0 mm
07:40 AM 63.0°F17.2°C 60.6°F15.9°C 92% 1.1 mph SE1.8 kmh SE 3.1 mph5.0 kmh 30.15 in1021.0 mb 0.00 in0.0 mm 0.00 in0.0 mm 0.00 in0.0 mm
07:45 AM 63.3°F17.4°C 60.6°F15.9°C 91% Calm Calm 2.9 mph4.7 kmh 30.15 in1021.0 mb 0.00 in0.0 mm 0.00 in0.0 mm 0.00 in0.0 mm
07:50 AM 63.3°F17.4°C 60.6°F15.9°C 91% 2.9 mph SE4.7 kmh SE 4.7 mph7.6 kmh 30.15 in1021.0 mb 0.00 in0.0 mm 0.00 in0.0 mm 0.00 in0.0 mm
07:55 AM 63.9°F17.7°C 60.9°F16.1°C 90% 3.8 mph SE6.1 kmh SE 4.7 mph7.6 kmh 30.15 in1021.0 mb 0.00 in0.0 mm 0.00 in0.0 mm 0.00 in0.0 mm
08:00 AM 64.4°F18.0°C 61.1°F16.2°C 89% 2.5 mph ESE4.0 kmh ESE 5.8 mph9.3 kmh 30.15 in1021.0 mb 0.00 in0.0 mm 0.00 in0.0 mm 0.00 in0.0 mm
08:05 AM 64.8°F18.2°C 61.1°F16.2°C 88% 3.6 mph E5.8 kmh E 5.8 mph9.3 kmh 30.15 in1021.0 mb 0.00 in0.0 mm 0.00 in0.0 mm 0.00 in0.0 mm
08:10 AM 65.3°F18.5°C 61.3°F16.3°C 87% 2.7 mph SE4.3 kmh SE 5.4 mph8.7 kmh 30.15 in1021.0 mb 0.00 in0.0 mm 0.00 in0.0 mm 0.00 in0.0 mm
08:15 AM 65.7°F18.7°C 61.4°F16.3°C 86% 3.4 mph SE5.5 kmh SE 6.3 mph10.1 kmh 30.15 in1021.0 mb 0.00 in0.0 mm 0.00 in0.0 mm 0.00 in0.0 mm
08:20 AM 66.2°F19.0°C 60.9°F16.1°C 83% 4.0 mph SE6.4 kmh SE 7.2 mph11.6 kmh 30.15 in1021.0 mb 0.00 in0.0 mm 0.00 in0.0 mm 0.00 in0.0 mm
08:25 AM 66.6°F19.2°C 60.9°F16.1°C 82% 2.7 mph SE4.3 kmh SE 7.2 mph11.6 kmh 30.15 in1021.0 mb 0.00 in0.0 mm 0.00 in0.0 mm 0.00 in0.0 mm
08:30 AM 67.1°F19.5°C 61.1°F16.2°C 81% 3.1 mph SE5.0 kmh SE 6.3 mph10.1 kmh 30.15 in1021.0 mb 0.00 in0.0 mm 0.00 in0.0 mm 0.00 in0.0 mm
08:35 AM 67.3°F19.6°C 61.2°F16.2°C 81% 3.4 mph ESE5.5 kmh ESE 4.0 mph6.4 kmh 30.15 in1021.0 mb 0.00 in0.0 mm 0.00 in0.0 mm 0.00 in0.0 mm
08:40 AM 67.6°F19.8°C 61.6°F16.4°C 81% 1.3 mph ENE2.1 kmh ENE 4.3 mph6.9 kmh 30.15 in1021.0 mb 0.00 in0.0 mm 0.00 in0.0 mm 0.00 in0.0 mm
08:45 AM 68.0°F20.0°C 61.2°F16.2°C 79% 2.7 mph E4.3 kmh E 4.3 mph6.9 kmh 30.15 in1021.0 mb 0.00 in0.0 mm 0.00 in0.0 mm 0.00 in0.0 mm
08:50 AM 68.5°F20.3°C 61.8°F16.6°C 79% Calm Calm 3.4 mph5.5 kmh 30.15 in1021.0 mb 0.00 in0.0 mm 0.00 in0.0 mm 0.00 in0.0 mm
08:55 AM 68.9°F20.5°C 61.4°F16.3°C 77% 1.1 mph E1.8 kmh E 4.3 mph6.9 kmh 30.15 in1021.0 mb 0.00 in0.0 mm 0.00 in0.0 mm 0.00 in0.0 mm
09:00 AM 69.6°F20.9°C 61.3°F16.3°C 75% 3.4 mph SE5.5 kmh SE 4.9 mph7.9 kmh 30.15 in1021.0 mb 0.00 in0.0 mm 0.00 in0.0 mm 0.00 in0.0 mm
09:05 AM 70.0°F21.1°C 60.9°F16.1°C 73% 2.7 mph SE4.3 kmh SE 5.4 mph8.7 kmh 30.15 in1021.0 mb 0.00 in0.0 mm 0.00 in0.0 mm 0.00 in0.0 mm
09:10 AM 70.3°F21.3°C 61.3°F16.3°C 73% 2.0 mph SE3.2 kmh SE 5.4 mph8.7 kmh 30.15 in1021.0 mb 0.00 in0.0 mm 0.00 in0.0 mm 0.00 in0.0 mm
09:15 AM 70.7°F21.5°C 61.2°F16.2°C 72% 3.4 mph SE5.5 kmh SE 5.6 mph9.0 kmh 30.15 in1021.0 mb 0.00 in0.0 mm 0.00 in0.0 mm 0.00 in0.0 mm
09:20 AM 71.1°F21.7°C 61.6°F16.4°C 72% 2.9 mph SE4.7 kmh SE 5.6 mph9.0 kmh 30.15 in1021.0 mb 0.00 in0.0 mm 0.00 in0.0 mm 0.00 in0.0 mm
09:25 AM 71.6°F22.0°C 61.7°F16.5°C 71% 3.4 mph SE5.5 kmh SE 4.0 mph6.4 kmh 30.15 in1021.0 mb 0.00 in0.0 mm 0.00 in0.0 mm 0.00 in0.0 mm
09:30 AM 72.1°F22.3°C 61.0°F16.1°C 68% 3.8 mph SSE6.1 kmh SSE 6.3 mph10.1 kmh 30.15 in1021.0 mb 0.00 in0.0 mm 0.00 in0.0 mm 0.00 in0.0 mm
09:35 AM 72.7°F22.6°C 61.1°F16.2°C 67% 3.6 mph SSE5.8 kmh SSE 6.3 mph10.1 kmh 30.15 in1021.0 mb 0.00 in0.0 mm 0.00 in0.0 mm 0.00 in0.0 mm
09:40 AM 73.2°F22.9°C 61.2°F16.2°C 66% 3.4 mph SE5.5 kmh SE 6.3 mph10.1 kmh 30.15 in1021.0 mb 0.00 in0.0 mm 0.00 in0.0 mm 0.00 in0.0 mm
09:45 AM 73.4°F23.0°C 61.3°F16.3°C 66% 2.9 mph SE4.7 kmh SE 5.4 mph8.7 kmh 30.15 in1021.0 mb 0.00 in0.0 mm 0.00 in0.0 mm 0.00 in0.0 mm
09:50 AM 73.9°F23.3°C 60.5°F15.8°C 63% 3.1 mph SE5.0 kmh SE 5.4 mph8.7 kmh 30.15 in1021.0 mb 0.00 in0.0 mm 0.00 in0.0 mm 0.00 in0.0 mm
09:55 AM 74.3°F23.5°C 60.4°F15.8°C 62% 3.6 mph SE5.8 kmh SE 5.8 mph9.3 kmh 30.12 in1020.0 mb 0.00 in0.0 mm 0.00 in0.0 mm 0.00 in0.0 mm
10:00 AM 74.8°F23.8°C 61.4°F16.3°C 63% 3.8 mph SSE6.1 kmh SSE 6.5 mph10.5 kmh 30.12 in1020.0 mb 0.00 in0.0 mm 0.00 in0.0 mm 0.00 in0.0 mm
10:05 AM 75.2°F24.0°C 60.8°F16.0°C 61% 4.3 mph SSE6.9 kmh SSE 6.5 mph10.5 kmh 30.12 in1020.0 mb 0.00 in0.0 mm 0.00 in0.0 mm 0.00 in0.0 mm
10:10 AM 75.7°F24.3°C 61.8°F16.6°C 62% 1.6 mph SE2.6 kmh SE 6.0 mph9.7 kmh 30.12 in1020.0 mb 0.00 in0.0 mm 0.00 in0.0 mm 0.00 in0.0 mm
10:15 AM 75.9°F24.4°C 61.5°F16.4°C 61% 3.4 mph SE5.5 kmh SE 4.9 mph7.9 kmh 30.12 in1020.0 mb 0.00 in0.0 mm 0.00 in0.0 mm 0.00 in0.0 mm
10:20 AM 76.1°F24.5°C 60.7°F15.9°C 59% 4.0 mph ESE6.4 kmh ESE 4.9 mph7.9 kmh 30.12 in1020.0 mb 0.00 in0.0 mm 0.00 in0.0 mm 0.00 in0.0 mm
10:25 AM 76.8°F24.9°C 61.9°F16.6°C 60% 3.1 mph ESE5.0 kmh ESE 4.9 mph7.9 kmh 30.12 in1020.0 mb 0.00 in0.0 mm 0.00 in0.0 mm 0.00 in0.0 mm
10:30 AM 77.2°F25.1°C 60.8°F16.0°C 57% 2.9 mph SE4.7 kmh SE 3.8 mph6.1 kmh 30.12 in1020.0 mb 0.00 in0.0 mm 0.00 in0.0 mm 0.00 in0.0 mm
10:35 AM 77.5°F25.3°C 61.6°F16.4°C 58% 1.3 mph SE2.1 kmh SE 4.3 mph6.9 kmh 30.12 in1020.0 mb 0.00 in0.0 mm 0.00 in0.0 mm 0.00 in0.0 mm
10:40 AM 77.9°F25.5°C 63.4°F17.4°C 61% 2.2 mph SE3.5 kmh SE 4.3 mph6.9 kmh 30.12 in1020.0 mb 0.00 in0.0 mm 0.00 in0.0 mm 0.00 in0.0 mm
10:45 AM 78.1°F25.6°C 62.6°F17.0°C 59% 2.9 mph SE4.7 kmh SE 4.0 mph6.4 kmh 30.12 in1020.0 mb 0.00 in0.0 mm 0.00 in0.0 mm 0.00 in0.0 mm
10:50 AM 78.4°F25.8°C 62.9°F17.2°C 59% 2.2 mph SSE3.5 kmh SSE 4.3 mph6.9 kmh 30.12 in1020.0 mb 0.00 in0.0 mm 0.00 in0.0 mm 0.00 in0.0 mm
10:55 AM 78.8°F26.0°C 62.8°F17.1°C 58% 2.0 mph SE3.2 kmh SE 4.3 mph6.9 kmh 30.12 in1020.0 mb 0.00 in0.0 mm 0.00 in0.0 mm 0.00 in0.0 mm
11:00 AM 79.2°F26.2°C 63.6°F17.6°C 59% Calm Calm 3.6 mph5.8 kmh 30.12 in1020.0 mb 0.00 in0.0 mm 0.00 in0.0 mm 0.00 in0.0 mm
11:05 AM 79.5°F26.4°C 61.9°F16.6°C 55% 2.5 mph SE4.0 kmh SE 3.6 mph5.8 kmh 30.12 in1020.0 mb 0.00 in0.0 mm 0.00 in0.0 mm 0.00 in0.0 mm
11:10 AM 79.5°F26.4°C 62.4°F16.9°C 56% 1.3 mph SE2.1 kmh SE 3.4 mph5.5 kmh 30.12 in1020.0 mb 0.00 in0.0 mm 0.00 in0.0 mm 0.00 in0.0 mm
11:15 AM 80.1°F26.7°C 64.4°F18.0°C 59% 2.2 mph SSE3.5 kmh SSE 2.9 mph4.7 kmh 30.12 in1020.0 mb 0.00 in0.0 mm 0.00 in0.0 mm 0.00 in0.0 mm
11:20 AM 80.2°F26.8°C 63.6°F17.6°C 57% 0.9 mph SSW1.4 kmh SSW 2.9 mph4.7 kmh 30.12 in1020.0 mb 0.00 in0.0 mm 0.00 in0.0 mm 0.00 in0.0 mm
11:25 AM 80.8°F27.1°C 63.1°F17.3°C 55% 2.5 mph SSE4.0 kmh SSE 4.0 mph6.4 kmh 30.12 in1020.0 mb 0.00 in0.0 mm 0.00 in0.0 mm 0.00 in0.0 mm
11:30 AM 81.1°F27.3°C 64.0°F17.8°C 56% Calm Calm 4.0 mph6.4 kmh 30.12 in1020.0 mb 0.00 in0.0 mm 0.00 in0.0 mm 0.00 in0.0 mm
11:35 AM 81.5°F27.5°C 65.3°F18.5°C 58% 2.7 mph SSE4.3 kmh SSE 3.6 mph5.8 kmh 30.12 in1020.0 mb 0.00 in0.0 mm 0.00 in0.0 mm 0.00 in0.0 mm
11:40 AM 81.7°F27.6°C 64.5°F18.1°C 56% 0.9 mph S1.4 kmh S 3.6 mph5.8 kmh 30.12 in1020.0 mb 0.00 in0.0 mm 0.00 in0.0 mm 0.00 in0.0 mm
11:45 AM 82.0°F27.8°C 64.3°F17.9°C 55% 0.9 mph SW1.4 kmh SW 2.9 mph4.7 kmh 30.12 in1020.0 mb 0.00 in0.0 mm 0.00 in0.0 mm 0.00 in0.0 mm
11:50 AM 82.6°F28.1°C 62.6°F17.0°C 51% 2.5 mph SSW4.0 kmh SSW 3.8 mph6.1 kmh 30.12 in1020.0 mb 0.00 in0.0 mm 0.00 in0.0 mm 0.00 in0.0 mm
11:55 AM 82.8°F28.2°C 62.8°F17.1°C 51% 2.0 mph S3.2 kmh S 3.8 mph6.1 kmh 30.12 in1020.0 mb 0.00 in0.0 mm 0.00 in0.0 mm 0.00 in0.0 mm
12:00 PM 82.9°F28.3°C 60.0°F15.6°C 46% 3.1 mph S5.0 kmh S 3.8 mph6.1 kmh 30.12 in1020.0 mb 0.00 in0.0 mm 0.00 in0.0 mm 0.00 in0.0 mm
12:05 PM 83.1°F28.4°C 63.7°F17.6°C 52% 1.1 mph S1.8 kmh S 3.8 mph6.1 kmh 30.12 in1020.0 mb 0.00 in0.0 mm 0.00 in0.0 mm 0.00 in0.0 mm
12:10 PM 83.5°F28.6°C 61.7°F16.5°C 48% 3.1 mph S5.0 kmh S 8.5 mph13.7 kmh 30.12 in1020.0 mb 0.00 in0.0 mm 0.00 in0.0 mm 0.00 in0.0 mm
12:15 PM 83.5°F28.6°C 62.3°F16.8°C 49% 2.7 mph S4.3 kmh S 8.5 mph13.7 kmh 30.12 in1020.0 mb 0.00 in0.0 mm 0.00 in0.0 mm 0.00 in0.0 mm
12:20 PM 84.0°F28.9°C 62.2°F16.8°C 48% 2.5 mph SSW4.0 kmh SSW 5.6 mph9.0 kmh 30.12 in1020.0 mb 0.00 in0.0 mm 0.00 in0.0 mm 0.00 in0.0 mm
12:25 PM 83.8°F28.8°C 60.8°F16.0°C 46% 5.4 mph S8.7 kmh S 7.4 mph11.9 kmh 30.12 in1020.0 mb 0.00 in0.0 mm 0.00 in0.0 mm 0.00 in0.0 mm
12:30 PM 84.0°F28.9°C 62.2°F16.8°C 48% 3.1 mph S5.0 kmh S 7.4 mph11.9 kmh 30.12 in1020.0 mb 0.00 in0.0 mm 0.00 in0.0 mm 0.00 in0.0 mm
12:35 PM 84.2°F29.0°C 61.8°F16.6°C 47% 4.5 mph S7.2 kmh S 6.5 mph10.5 kmh 30.12 in1020.0 mb 0.00 in0.0 mm 0.00 in0.0 mm 0.00 in0.0 mm
12:40 PM 84.4°F29.1°C 61.9°F16.6°C 47% 3.4 mph S5.5 kmh S 8.5 mph13.7 kmh 30.12 in1020.0 mb 0.00 in0.0 mm 0.00 in0.0 mm 0.00 in0.0 mm
12:45 PM 84.4°F29.1°C 61.9°F16.6°C 47% 2.7 mph SSW4.3 kmh SSW 8.5 mph13.7 kmh 30.12 in1020.0 mb 0.00 in0.0 mm 0.00 in0.0 mm 0.00 in0.0 mm
12:50 PM 84.4°F29.1°C 61.9°F16.6°C 47% 1.6 mph SW2.6 kmh SW 4.0 mph6.4 kmh 30.12 in1020.0 mb 0.00 in0.0 mm 0.00 in0.0 mm 0.00 in0.0 mm
12:55 PM 84.2°F29.0°C 60.6°F15.9°C 45% 2.0 mph WSW3.2 kmh WSW 5.8 mph9.3 kmh 30.09 in1019.0 mb 0.00 in0.0 mm 0.00 in0.0 mm 0.00 in0.0 mm
01:00 PM 84.0°F28.9°C 61.0°F16.1°C 46% 3.8 mph WSW6.1 kmh WSW 8.1 mph13.0 kmh 30.09 in1019.0 mb 0.00 in0.0 mm 0.00 in0.0 mm 0.00 in0.0 mm
01:05 PM 84.4°F29.1°C 58.1°F14.5°C 41% 4.3 mph SW6.9 kmh SW 8.1 mph13.0 kmh 30.09 in1019.0 mb 0.00 in0.0 mm 0.00 in0.0 mm 0.00 in0.0 mm
01:10 PM 84.6°F29.2°C 60.2°F15.7°C 44% 2.9 mph S4.7 kmh S 6.5 mph10.5 kmh 30.09 in1019.0 mb 0.00 in0.0 mm 0.00 in0.0 mm 0.00 in0.0 mm
01:15 PM 84.6°F29.2°C 60.2°F15.7°C 44% 2.5 mph SSW4.0 kmh SSW 4.7 mph7.6 kmh 30.09 in1019.0 mb 0.00 in0.0 mm 0.00 in0.0 mm 0.00 in0.0 mm
01:20 PM 84.6°F29.2°C 60.2°F15.7°C 44% 4.9 mph SW7.9 kmh SW 8.1 mph13.0 kmh 30.09 in1019.0 mb 0.00 in0.0 mm 0.00 in0.0 mm 0.00 in0.0 mm
01:25 PM 84.6°F29.2°C 60.9°F16.1°C 45% 3.4 mph SW5.5 kmh SW 8.1 mph13.0 kmh 30.09 in1019.0 mb 0.00 in0.0 mm 0.00 in0.0 mm 0.00 in0.0 mm
01:30 PM 84.2°F29.0°C 59.3°F15.2°C 43% 3.4 mph S5.5 kmh S 8.1 mph13.0 kmh 30.09 in1019.0 mb 0.00 in0.0 mm 0.00 in0.0 mm 0.00 in0.0 mm
01:35 PM 84.6°F29.2°C 59.6°F15.3°C 43% 4.0 mph S6.4 kmh S 8.1 mph13.0 kmh 30.09 in1019.0 mb 0.00 in0.0 mm 0.00 in0.0 mm 0.00 in0.0 mm
01:40 PM 84.4°F29.1°C 58.8°F14.9°C 42% 2.7 mph S4.3 kmh S 6.0 mph9.7 kmh 30.12 in1020.0 mb 0.00 in0.0 mm 0.00 in0.0 mm 0.00 in0.0 mm
01:45 PM 84.4°F29.1°C 58.1°F14.5°C 41% 5.4 mph SSW8.7 kmh SSW 8.7 mph14.0 kmh 30.12 in1020.0 mb 0.00 in0.0 mm 0.00 in0.0 mm 0.00 in0.0 mm
01:50 PM 84.4°F29.1°C 57.4°F14.1°C 40% 4.7 mph S7.6 kmh S 10.1 mph16.3 kmh 30.12 in1020.0 mb 0.00 in0.0 mm 0.00 in0.0 mm 0.00 in0.0 mm
01:55 PM 84.2°F29.0°C 56.6°F13.7°C 39% 4.5 mph S7.2 kmh S 10.1 mph16.3 kmh 30.09 in1019.0 mb 0.00 in0.0 mm 0.00 in0.0 mm 0.00 in0.0 mm
02:00 PM 84.0°F28.9°C 57.8°F14.3°C 41% 5.4 mph SSW8.7 kmh SSW 8.1 mph13.0 kmh 30.09 in1019.0 mb 0.00 in0.0 mm 0.00 in0.0 mm 0.00 in0.0 mm
02:05 PM 84.2°F29.0°C 58.6°F14.8°C 42% 3.6 mph SSW5.8 kmh SSW 8.1 mph13.0 kmh 30.09 in1019.0 mb 0.00 in0.0 mm 0.00 in0.0 mm 0.00 in0.0 mm
02:10 PM 84.2°F29.0°C 57.3°F14.1°C 40% 5.4 mph S8.7 kmh S 7.4 mph11.9 kmh 30.09 in1019.0 mb 0.00 in0.0 mm 0.00 in0.0 mm 0.00 in0.0 mm
02:15 PM 83.8°F28.8°C 58.3°F14.6°C 42% 5.4 mph SW8.7 kmh SW 7.6 mph12.2 kmh 30.09 in1019.0 mb 0.00 in0.0 mm 0.00 in0.0 mm 0.00 in0.0 mm
02:20 PM 83.7°F28.7°C 58.1°F14.5°C 42% 5.6 mph WSW9.0 kmh WSW 7.8 mph12.6 kmh 30.09 in1019.0 mb 0.00 in0.0 mm 0.00 in0.0 mm 0.00 in0.0 mm
02:25 PM 83.3°F28.5°C 57.8°F14.3°C 42% 3.8 mph W6.1 kmh W 7.8 mph12.6 kmh 30.09 in1019.0 mb 0.00 in0.0 mm 0.00 in0.0 mm 0.00 in0.0 mm
02:30 PM 83.1°F28.4°C 57.0°F13.9°C 41% 2.9 mph WNW4.7 kmh WNW 6.5 mph10.5 kmh 30.09 in1019.0 mb 0.00 in0.0 mm 0.00 in0.0 mm 0.00 in0.0 mm
02:35 PM 83.1°F28.4°C 57.6°F14.2°C 42% 2.2 mph W3.5 kmh W 6.5 mph10.5 kmh 30.09 in1019.0 mb 0.00 in0.0 mm 0.00 in0.0 mm 0.00 in0.0 mm
02:40 PM 83.3°F28.5°C 57.8°F14.3°C 42% 5.4 mph SW8.7 kmh SW 7.8 mph12.6 kmh 30.09 in1019.0 mb 0.00 in0.0 mm 0.00 in0.0 mm 0.00 in0.0 mm
02:45 PM 83.3°F28.5°C 57.8°F14.3°C 42% 3.4 mph SW5.5 kmh SW 7.8 mph12.6 kmh 30.09 in1019.0 mb 0.00 in0.0 mm 0.00 in0.0 mm 0.00 in0.0 mm
02:50 PM 83.3°F28.5°C 57.1°F13.9°C 41% 2.7 mph SW4.3 kmh SW 6.3 mph10.1 kmh 30.09 in1019.0 mb 0.00 in0.0 mm 0.00 in0.0 mm 0.00 in0.0 mm
02:55 PM 83.1°F28.4°C 57.6°F14.2°C 42% 4.5 mph SW7.2 kmh SW 7.2 mph11.6 kmh 30.09 in1019.0 mb 0.00 in0.0 mm 0.00 in0.0 mm 0.00 in0.0 mm
03:00 PM 83.3°F28.5°C 57.8°F14.3°C 42% 4.7 mph SSW7.6 kmh SSW 8.5 mph13.7 kmh 30.09 in1019.0 mb 0.00 in0.0 mm 0.00 in0.0 mm 0.00 in0.0 mm
03:05 PM 83.3°F28.5°C 57.8°F14.3°C 42% 2.9 mph SSW4.7 kmh SSW 8.5 mph13.7 kmh 30.09 in1019.0 mb 0.00 in0.0 mm 0.00 in0.0 mm 0.00 in0.0 mm
03:10 PM 83.1°F28.4°C 57.6°F14.2°C 42% 3.1 mph SW5.0 kmh SW 6.0 mph9.7 kmh 30.09 in1019.0 mb 0.00 in0.0 mm 0.00 in0.0 mm 0.00 in0.0 mm
03:15 PM 82.8°F28.2°C 57.3°F14.1°C 42% 2.7 mph WSW4.3 kmh WSW 7.4 mph11.9 kmh 30.09 in1019.0 mb 0.00 in0.0 mm 0.00 in0.0 mm 0.00 in0.0 mm
03:20 PM 82.8°F28.2°C 57.3°F14.1°C 42% 3.6 mph W5.8 kmh W 7.4 mph11.9 kmh 30.09 in1019.0 mb 0.00 in0.0 mm 0.00 in0.0 mm 0.00 in0.0 mm
03:25 PM 82.8°F28.2°C 58.0°F14.4°C 43% 2.5 mph W4.0 kmh W 6.3 mph10.1 kmh 30.09 in1019.0 mb 0.00 in0.0 mm 0.00 in0.0 mm 0.00 in0.0 mm
03:30 PM 82.8°F28.2°C 58.0°F14.4°C 43% 4.7 mph W7.6 kmh W 8.7 mph14.0 kmh 30.09 in1019.0 mb 0.00 in0.0 mm 0.00 in0.0 mm 0.00 in0.0 mm
03:35 PM 82.6°F28.1°C 57.8°F14.3°C 43% 3.1 mph WSW5.0 kmh WSW 8.7 mph14.0 kmh 30.09 in1019.0 mb 0.00 in0.0 mm 0.00 in0.0 mm 0.00 in0.0 mm
03:40 PM 82.4°F28.0°C 58.3°F14.6°C 44% 2.7 mph SW4.3 kmh SW 6.0 mph9.7 kmh 30.09 in1019.0 mb 0.00 in0.0 mm 0.00 in0.0 mm 0.00 in0.0 mm
03:45 PM 82.4°F28.0°C 58.3°F14.6°C 44% 2.5 mph S4.0 kmh S 5.4 mph8.7 kmh 30.09 in1019.0 mb 0.00 in0.0 mm 0.00 in0.0 mm 0.00 in0.0 mm
03:50 PM 82.4°F28.0°C 58.3°F14.6°C 44% 2.5 mph SSW4.0 kmh SSW 5.4 mph8.7 kmh 30.09 in1019.0 mb 0.00 in0.0 mm 0.00 in0.0 mm 0.00 in0.0 mm
03:55 PM 82.2°F27.9°C 58.8°F14.9°C 45% 1.3 mph W2.1 kmh W 4.7 mph7.6 kmh 30.09 in1019.0 mb 0.00 in0.0 mm 0.00 in0.0 mm 0.00 in0.0 mm
04:00 PM 82.2°F27.9°C 58.8°F14.9°C 45% 2.7 mph WNW4.3 kmh WNW 4.3 mph6.9 kmh 30.09 in1019.0 mb 0.00 in0.0 mm 0.00 in0.0 mm 0.00 in0.0 mm
04:05 PM 82.0°F27.8°C 58.0°F14.4°C 44% 3.1 mph WSW5.0 kmh WSW 5.8 mph9.3 kmh 30.09 in1019.0 mb 0.00 in0.0 mm 0.00 in0.0 mm 0.00 in0.0 mm
04:10 PM 81.9°F27.7°C 58.4°F14.7°C 45% 2.9 mph SW4.7 kmh SW 5.8 mph9.3 kmh 30.09 in1019.0 mb 0.00 in0.0 mm 0.00 in0.0 mm 0.00 in0.0 mm
04:15 PM 81.9°F27.7°C 58.4°F14.7°C 45% 2.5 mph S4.0 kmh S 5.8 mph9.3 kmh 30.09 in1019.0 mb 0.00 in0.0 mm 0.00 in0.0 mm 0.00 in0.0 mm
04:20 PM 81.9°F27.7°C 58.4°F14.7°C 45% 4.5 mph SW7.2 kmh SW 7.2 mph11.6 kmh 30.09 in1019.0 mb 0.00 in0.0 mm 0.00 in0.0 mm 0.00 in0.0 mm
04:25 PM 81.7°F27.6°C 58.3°F14.6°C 45% 4.0 mph W6.4 kmh W 7.2 mph11.6 kmh 30.09 in1019.0 mb 0.00 in0.0 mm 0.00 in0.0 mm 0.00 in0.0 mm
04:30 PM 81.7°F27.6°C 58.9°F14.9°C 46% 2.2 mph W3.5 kmh W 6.0 mph9.7 kmh 30.09 in1019.0 mb 0.00 in0.0 mm 0.00 in0.0 mm 0.00 in0.0 mm
04:35 PM 81.7°F27.6°C 58.9°F14.9°C 46% 2.7 mph WSW4.3 kmh WSW 4.9 mph7.9 kmh 30.09 in1019.0 mb 0.00 in0.0 mm 0.00 in0.0 mm 0.00 in0.0 mm
04:40 PM 81.5°F27.5°C 59.3°F15.2°C 47% 2.0 mph SW3.2 kmh SW 4.9 mph7.9 kmh 30.09 in1019.0 mb 0.00 in0.0 mm 0.00 in0.0 mm 0.00 in0.0 mm
04:45 PM 81.5°F27.5°C 59.9°F15.5°C 48% 2.7 mph S4.3 kmh S 4.3 mph6.9 kmh 30.09 in1019.0 mb 0.00 in0.0 mm 0.00 in0.0 mm 0.00 in0.0 mm
04:50 PM 81.3°F27.4°C 59.2°F15.1°C 47% 3.4 mph SSW5.5 kmh SSW 4.7 mph7.6 kmh 30.09 in1019.0 mb 0.00 in0.0 mm 0.00 in0.0 mm 0.00 in0.0 mm
04:55 PM 81.1°F27.3°C 59.6°F15.3°C 48% 3.4 mph SSW5.5 kmh SSW 4.9 mph7.9 kmh 30.09 in1019.0 mb 0.00 in0.0 mm 0.00 in0.0 mm 0.00 in0.0 mm
05:00 PM 80.8°F27.1°C 59.8°F15.4°C 49% 1.6 mph S2.6 kmh S 4.9 mph7.9 kmh 30.09 in1019.0 mb 0.00 in0.0 mm 0.00 in0.0 mm 0.00 in0.0 mm
05:05 PM 80.4°F26.9°C 57.7°F14.3°C 46% 6.5 mph SE10.5 kmh SE 10.1 mph16.3 kmh 30.09 in1019.0 mb 0.00 in0.0 mm 0.00 in0.0 mm 0.00 in0.0 mm
05:10 PM 79.5°F26.4°C 56.3°F13.5°C 45% 7.2 mph ESE11.6 kmh ESE 10.1 mph16.3 kmh 30.12 in1020.0 mb 0.00 in0.0 mm 0.00 in0.0 mm 0.00 in0.0 mm
05:15 PM 78.6°F25.9°C 55.5°F13.1°C 45% 5.8 mph E9.3 kmh E 8.5 mph13.7 kmh 30.12 in1020.0 mb 0.00 in0.0 mm 0.00 in0.0 mm 0.00 in0.0 mm
05:20 PM 77.9°F25.5°C 55.5°F13.1°C 46% 6.0 mph E9.7 kmh E 8.5 mph13.7 kmh 30.12 in1020.0 mb 0.00 in0.0 mm 0.00 in0.0 mm 0.00 in0.0 mm
05:25 PM 77.5°F25.3°C 55.1°F12.8°C 46% 3.8 mph E6.1 kmh E 10.7 mph17.2 kmh 30.12 in1020.0 mb 0.00 in0.0 mm 0.00 in0.0 mm 0.00 in0.0 mm
05:30 PM 77.2°F25.1°C 56.0°F13.3°C 48% 4.3 mph E6.9 kmh E 10.7 mph17.2 kmh 30.12 in1020.0 mb 0.00 in0.0 mm 0.00 in0.0 mm 0.00 in0.0 mm
05:35 PM 75.7°F24.3°C 59.4°F15.2°C 57% 2.5 mph NE4.0 kmh NE 7.2 mph11.6 kmh 30.12 in1020.0 mb 0.04 in1.0 mm 0.48 in12.2 mm 0.04 in1.0 mm
05:40 PM 73.9°F23.3°C 60.5°F15.8°C 63% 1.3 mph N2.1 kmh N 6.5 mph10.5 kmh 30.12 in1020.0 mb 0.04 in1.0 mm 0.00 in0.0 mm 0.04 in1.0 mm
05:45 PM 73.4°F23.0°C 60.5°F15.8°C 64% 1.3 mph NNW2.1 kmh NNW 5.4 mph8.7 kmh 30.12 in1020.0 mb 0.04 in1.0 mm 0.00 in0.0 mm 0.04 in1.0 mm
05:50 PM 72.7°F22.6°C 60.2°F15.7°C 65% 1.3 mph NW2.1 kmh NW 5.4 mph8.7 kmh 30.12 in1020.0 mb 0.04 in1.0 mm 0.00 in0.0 mm 0.04 in1.0 mm
05:55 PM 71.8°F22.1°C 60.6°F15.9°C 68% 2.7 mph W4.3 kmh W 4.3 mph6.9 kmh 30.12 in1020.0 mb 0.04 in1.0 mm 0.00 in0.0 mm 0.04 in1.0 mm
06:00 PM 71.6°F22.0°C 59.2°F15.1°C 65% 2.0 mph WSW3.2 kmh WSW 5.4 mph8.7 kmh 30.12 in1020.0 mb 0.04 in1.0 mm 0.00 in0.0 mm 0.04 in1.0 mm
06:05 PM 71.1°F21.7°C 60.0°F15.6°C 68% 1.3 mph SW2.1 kmh SW 5.4 mph8.7 kmh 30.12 in1020.0 mb 0.04 in1.0 mm 0.00 in0.0 mm 0.04 in1.0 mm
06:10 PM 70.9°F21.6°C 60.6°F15.9°C 70% Calm Calm 3.1 mph5.0 kmh 30.12 in1020.0 mb 0.04 in1.0 mm 0.00 in0.0 mm 0.04 in1.0 mm
06:15 PM 70.3°F21.3°C 60.9°F16.1°C 72% 0.9 mph W1.4 kmh W 2.5 mph4.0 kmh 30.12 in1020.0 mb 0.04 in1.0 mm 0.00 in0.0 mm 0.04 in1.0 mm
06:20 PM 70.3°F21.3°C 60.9°F16.1°C 72% 3.6 mph W5.8 kmh W 4.3 mph6.9 kmh 30.12 in1020.0 mb 0.04 in1.0 mm 0.00 in0.0 mm 0.04 in1.0 mm
06:25 PM 70.2°F21.2°C 61.1°F16.2°C 73% 1.6 mph W2.6 kmh W 7.2 mph11.6 kmh 30.15 in1021.0 mb 0.04 in1.0 mm 0.00 in0.0 mm 0.04 in1.0 mm
06:30 PM 69.4°F20.8°C 62.3°F16.8°C 78% 2.7 mph SSW4.3 kmh SSW 7.2 mph11.6 kmh 30.15 in1021.0 mb 0.04 in1.0 mm 0.00 in0.0 mm 0.04 in1.0 mm
06:35 PM 69.3°F20.7°C 61.7°F16.5°C 77% 5.4 mph SSE8.7 kmh SSE 7.6 mph12.2 kmh 30.15 in1021.0 mb 0.04 in1.0 mm 0.00 in0.0 mm 0.08 in2.0 mm
06:40 PM 69.3°F20.7°C 61.0°F16.1°C 75% Calm Calm 7.6 mph12.2 kmh 30.18 in1022.0 mb 0.04 in1.0 mm 0.00 in0.0 mm 0.08 in2.0 mm
06:45 PM 69.1°F20.6°C 61.2°F16.2°C 76% Calm Calm 6.3 mph10.1 kmh 30.18 in1022.0 mb 0.04 in1.0 mm 0.00 in0.0 mm 0.08 in2.0 mm
06:50 PM 69.1°F20.6°C 61.2°F16.2°C 76% Calm Calm 2.7 mph4.3 kmh 30.18 in1022.0 mb 0.09 in2.3 mm 0.60 in15.2 mm 0.13 in3.3 mm
06:55 PM 68.9°F20.5°C 61.4°F16.3°C 77% 3.1 mph ENE5.0 kmh ENE 5.6 mph9.0 kmh 30.15 in1021.0 mb 0.09 in2.3 mm 0.00 in0.0 mm 0.13 in3.3 mm
07:00 PM 68.5°F20.3°C 61.4°F16.3°C 78% 2.2 mph E3.5 kmh E 5.6 mph9.0 kmh 30.15 in1021.0 mb 0.09 in2.3 mm 0.00 in0.0 mm 0.13 in3.3 mm
07:05 PM 68.2°F20.1°C 61.4°F16.3°C 79% 4.5 mph E7.2 kmh E 5.6 mph9.0 kmh 30.15 in1021.0 mb 0.09 in2.3 mm 0.00 in0.0 mm 0.13 in3.3 mm
07:10 PM 68.0°F20.0°C 60.9°F16.1°C 78% 3.4 mph E5.5 kmh E 5.6 mph9.0 kmh 30.15 in1021.0 mb 0.09 in2.3 mm 0.00 in0.0 mm 0.13 in3.3 mm
07:15 PM 67.8°F19.9°C 60.7°F15.9°C 78% 2.9 mph ESE4.7 kmh ESE 4.5 mph7.2 kmh 30.15 in1021.0 mb 0.09 in2.3 mm 0.00 in0.0 mm 0.13 in3.3 mm
07:20 PM 67.8°F19.9°C 60.7°F15.9°C 78% 3.6 mph SE5.8 kmh SE 4.5 mph7.2 kmh 30.15 in1021.0 mb 0.09 in2.3 mm 0.00 in0.0 mm 0.13 in3.3 mm
07:25 PM 67.8°F19.9°C 60.7°F15.9°C 78% 2.7 mph SE4.3 kmh SE 4.3 mph6.9 kmh 30.15 in1021.0 mb 0.09 in2.3 mm 0.00 in0.0 mm 0.13 in3.3 mm
07:30 PM 67.8°F19.9°C 61.4°F16.3°C 80% 3.6 mph ESE5.8 kmh ESE 6.0 mph9.7 kmh 30.15 in1021.0 mb 0.09 in2.3 mm 0.00 in0.0 mm 0.13 in3.3 mm
07:35 PM 67.8°F19.9°C 61.8°F16.6°C 81% 3.4 mph ESE5.5 kmh ESE 6.0 mph9.7 kmh 30.15 in1021.0 mb 0.05 in1.3 mm 0.00 in0.0 mm 0.13 in3.3 mm
07:40 PM 67.8°F19.9°C 61.4°F16.3°C 80% 3.6 mph E5.8 kmh E 8.7 mph14.0 kmh 30.15 in1021.0 mb 0.05 in1.3 mm 0.00 in0.0 mm 0.13 in3.3 mm
07:45 PM 67.6°F19.8°C 61.9°F16.6°C 82% 4.7 mph E7.6 kmh E 8.7 mph14.0 kmh 30.15 in1021.0 mb 0.05 in1.3 mm 0.00 in0.0 mm 0.13 in3.3 mm
07:50 PM 67.6°F19.8°C 61.6°F16.4°C 81% 1.3 mph SE2.1 kmh SE 5.6 mph9.0 kmh 30.15 in1021.0 mb 0.00 in0.0 mm 0.00 in0.0 mm 0.13 in3.3 mm
07:55 PM 67.6°F19.8°C 61.6°F16.4°C 81% 1.6 mph E2.6 kmh E 4.0 mph6.4 kmh 30.15 in1021.0 mb 0.00 in0.0 mm 0.00 in0.0 mm 0.13 in3.3 mm
08:00 PM 67.6°F19.8°C 61.6°F16.4°C 81% 2.9 mph E4.7 kmh E 4.0 mph6.4 kmh 30.15 in1021.0 mb 0.00 in0.0 mm 0.00 in0.0 mm 0.13 in3.3 mm
08:05 PM 67.5°F19.7°C 61.8°F16.6°C 82% 2.5 mph E4.0 kmh E 4.0 mph6.4 kmh 30.15 in1021.0 mb 0.00 in0.0 mm 0.00 in0.0 mm 0.13 in3.3 mm
08:10 PM 67.5°F19.7°C 61.8°F16.6°C 82% 1.1 mph E1.8 kmh E 3.6 mph5.8 kmh 30.18 in1022.0 mb 0.00 in0.0 mm 0.00 in0.0 mm 0.13 in3.3 mm
08:15 PM 67.5°F19.7°C 61.8°F16.6°C 82% 2.5 mph S4.0 kmh S 4.0 mph6.4 kmh 30.18 in1022.0 mb 0.00 in0.0 mm 0.00 in0.0 mm 0.13 in3.3 mm
08:20 PM 67.5°F19.7°C 61.8°F16.6°C 82% 1.1 mph SE1.8 kmh SE 4.0 mph6.4 kmh 30.18 in1022.0 mb 0.00 in0.0 mm 0.00 in0.0 mm 0.13 in3.3 mm
08:25 PM 67.5°F19.7°C 62.1°F16.7°C 83% Calm Calm 2.9 mph4.7 kmh 30.18 in1022.0 mb 0.00 in0.0 mm 0.00 in0.0 mm 0.13 in3.3 mm
08:30 PM 67.3°F19.6°C 62.6°F17.0°C 85% 4.0 mph SE6.4 kmh SE 4.9 mph7.9 kmh 30.18 in1022.0 mb 0.00 in0.0 mm 0.00 in0.0 mm 0.13 in3.3 mm
08:35 PM 67.3°F19.6°C 62.3°F16.8°C 84% 4.0 mph SE6.4 kmh SE 5.6 mph9.0 kmh 30.18 in1022.0 mb 0.00 in0.0 mm 0.00 in0.0 mm 0.13 in3.3 mm